Time,TemperatureF,DewpointF,PressureIn,WindDirection,WindDirectionDegrees,WindSpeedMPH,WindSpeedGustMPH,Humidity,HourlyPrecipIn,Conditions,Clouds,dailyrainin,SoftwareType,DateUTC
2013-01-19 00:03:00,19.2,17.8,29.83,West,263,0.0,0.0,94,0.00,,,0.00,Wunderground v.1.15,2013-01-19 06:03:00,
2013-01-19 00:09:00,19.2,17.8,29.83,West,263,0.0,0.0,94,0.00,,,0.00,Wunderground v.1.15,2013-01-19 06:09:00,
2013-01-19 00:14:00,19.4,18.0,29.82,West,263,0.0,0.0,94,0.00,,,0.00,Wunderground v.1.15,2013-01-19 06:14:00,
2013-01-19 00:20:00,19.5,18.1,29.82,West,264,0.0,0.0,94,0.00,,,0.00,Wunderground v.1.15,2013-01-19 06:20:00,
2013-01-19 00:25:00,19.5,18.1,29.81,West,264,0.0,0.0,94,0.00,,,0.00,Wunderground v.1.15,2013-01-19 06:25:00,
2013-01-19 00:30:00,19.4,18.0,29.81,West,264,0.0,0.0,94,0.00,,,0.00,Wunderground v.1.15,2013-01-19 06:30:00,
2013-01-19 00:36:00,19.2,17.5,29.80,West,263,0.0,0.0,93,0.00,,,0.00,Wunderground v.1.15,2013-01-19 06:36:00,
2013-01-19 00:42:00,19.0,17.3,29.80,West,264,0.0,0.0,93,0.00,,,0.00,Wunderground v.1.15,2013-01-19 06:42:00,
2013-01-19 00:47:00,19.0,17.6,29.80,West,263,0.0,0.0,94,0.00,,,0.00,Wunderground v.1.15,2013-01-19 06:47:00,
2013-01-19 00:52:00,19.0,17.6,29.79,West,264,0.0,0.0,94,0.00,,,0.00,Wunderground v.1.15,2013-01-19 06:52:00,
2013-01-19 00:58:00,19.1,17.7,29.79,West,263,0.0,0.0,94,0.00,,,0.00,Wunderground v.1.15,2013-01-19 06:58:00,
2013-01-19 01:04:00,19.2,17.8,29.78,West,264,0.0,0.0,94,0.00,,,0.00,Wunderground v.1.15,2013-01-19 07:04:00,
2013-01-19 01:10:00,19.3,17.9,29.78,West,264,0.0,0.0,94,0.00,,,0.00,Wunderground v.1.15,2013-01-19 07:10:00,
2013-01-19 01:16:00,19.4,18.0,29.78,West,264,0.0,0.0,94,0.00,,,0.00,Wunderground v.1.15,2013-01-19 07:16:00,
2013-01-19 01:21:00,19.6,18.2,29.77,West,263,0.0,0.0,94,0.00,,,0.00,Wunderground v.1.15,2013-01-19 07:21:00,
2013-01-19 01:27:00,19.7,18.3,29.77,West,259,0.0,0.0,94,0.00,,,0.00,Wunderground v.1.15,2013-01-19 07:27:00,
2013-01-19 01:32:00,20.1,18.9,29.77,SW,215,0.0,0.0,95,0.00,,,0.00,Wunderground v.1.15,2013-01-19 07:32:00,
2013-01-19 01:37:00,20.6,19.4,29.77,South,174,0.0,1.0,95,0.00,,,0.00,Wunderground v.1.15,2013-01-19 07:37:00,
2013-01-19 01:43:00,21.0,20.0,29.76,South,189,0.0,1.0,96,0.00,,,0.00,Wunderground v.1.15,2013-01-19 07:43:00,
2013-01-19 01:49:00,21.4,20.4,29.76,SSW,195,0.0,2.0,96,0.00,,,0.00,Wunderground v.1.15,2013-01-19 07:49:00,
2013-01-19 01:55:00,21.8,20.6,29.76,South,185,1.0,2.0,95,0.00,,,0.00,Wunderground v.1.15,2013-01-19 07:55:00,
2013-01-19 02:00:00,22.1,20.9,29.75,SE,142,1.0,5.0,95,0.00,,,0.00,Wunderground v.1.15,2013-01-19 08:00:00,
2013-01-19 02:06:00,22.4,21.2,29.75,SSW,211,1.0,5.0,95,0.00,,,0.00,Wunderground v.1.15,2013-01-19 08:06:00,
2013-01-19 02:11:00,22.4,20.9,29.75,SSW,206,1.0,1.0,94,0.00,,,0.00,Wunderground v.1.15,2013-01-19 08:11:00,
2013-01-19 02:17:00,22.1,20.6,29.76,WSW,240,0.0,1.0,94,0.00,,,0.00,Wunderground v.1.15,2013-01-19 08:17:00,
2013-01-19 02:23:00,21.9,20.4,29.77,SW,229,0.0,0.0,94,0.00,,,0.00,Wunderground v.1.15,2013-01-19 08:23:00,
2013-01-19 02:28:00,21.6,20.1,29.78,West,275,0.0,2.0,94,0.00,,,0.00,Wunderground v.1.15,2013-01-19 08:28:00,
2013-01-19 02:34:00,21.7,20.2,29.79,WNW,297,1.0,2.0,94,0.00,,,0.00,Wunderground v.1.15,2013-01-19 08:34:00,
2013-01-19 02:40:00,21.5,20.0,29.78,West,280,1.0,1.0,94,0.00,,,0.00,Wunderground v.1.15,2013-01-19 08:40:00,
2013-01-19 02:45:00,21.3,19.8,29.78,West,275,0.0,1.0,94,0.00,,,0.00,Wunderground v.1.15,2013-01-19 08:45:00,
2013-01-19 02:51:00,21.1,19.6,29.77,West,275,0.0,0.0,94,0.00,,,0.00,Wunderground v.1.15,2013-01-19 08:51:00,
2013-01-19 02:56:00,20.9,19.4,29.76,West,275,0.0,0.0,94,0.00,,,0.00,Wunderground v.1.15,2013-01-19 08:56:00,
2013-01-19 03:02:00,20.5,19.0,29.78,WSW,257,0.0,0.0,94,0.00,,,0.00,Wunderground v.1.15,2013-01-19 09:02:00,
2013-01-19 03:08:00,20.1,18.4,29.78,SW,233,0.0,0.0,93,0.00,,,0.00,Wunderground v.1.15,2013-01-19 09:08:00,
2013-01-19 03:14:00,19.9,18.5,29.78,SW,232,0.0,0.0,94,0.00,,,0.00,Wunderground v.1.15,2013-01-19 09:14:00,
2013-01-19 03:19:00,19.9,18.5,29.78,SW,233,0.0,0.0,94,0.00,,,0.00,Wunderground v.1.15,2013-01-19 09:19:00,
2013-01-19 03:24:00,19.7,18.3,29.78,SW,232,0.0,0.0,94,0.00,,,0.00,Wunderground v.1.15,2013-01-19 09:24:00,
2013-01-19 03:29:00,19.6,18.2,29.78,SW,233,0.0,0.0,94,0.00,,,0.00,Wunderground v.1.15,2013-01-19 09:29:00,
2013-01-19 03:35:00,19.6,18.2,29.78,SW,233,0.0,0.0,94,0.00,,,0.00,Wunderground v.1.15,2013-01-19 09:35:00,
2013-01-19 03:40:00,19.5,18.1,29.78,SW,233,0.0,0.0,94,0.00,,,0.00,Wunderground v.1.15,2013-01-19 09:40:00,
2013-01-19 03:46:00,19.3,17.9,29.77,SW,232,0.0,0.0,94,0.00,,,0.00,Wunderground v.1.15,2013-01-19 09:46:00,
2013-01-19 03:51:00,19.2,17.8,29.77,SW,232,0.0,0.0,94,0.00,,,0.00,Wunderground v.1.15,2013-01-19 09:51:00,
2013-01-19 03:57:00,19.2,17.8,29.77,SW,233,0.0,0.0,94,0.00,,,0.00,Wunderground v.1.15,2013-01-19 09:57:00,
2013-01-19 04:03:00,19.2,17.8,29.77,SW,233,0.0,0.0,94,0.00,,,0.00,Wunderground v.1.15,2013-01-19 10:03:00,
2013-01-19 04:08:00,19.1,17.7,29.77,SW,233,0.0,0.0,94,0.00,,,0.00,Wunderground v.1.15,2013-01-19 10:08:00,
2013-01-19 04:14:00,19.1,17.7,29.77,SW,233,0.0,0.0,94,0.00,,,0.00,Wunderground v.1.15,2013-01-19 10:14:00,
2013-01-19 04:20:00,19.2,18.0,29.77,SW,233,0.0,0.0,95,0.00,,,0.00,Wunderground v.1.15,2013-01-19 10:20:00,
2013-01-19 04:25:00,19.3,18.1,29.75,SW,232,0.0,0.0,95,0.00,,,0.00,Wunderground v.1.15,2013-01-19 10:25:00,
2013-01-19 04:31:00,19.6,18.4,29.74,SW,233,0.0,0.0,95,0.00,,,0.00,Wunderground v.1.15,2013-01-19 10:31:00,
2013-01-19 04:37:00,19.8,18.6,29.74,SW,232,0.0,0.0,95,0.00,,,0.00,Wunderground v.1.15,2013-01-19 10:37:00,
2013-01-19 04:43:00,20.0,19.0,29.75,SW,233,0.0,0.0,96,0.00,,,0.00,Wunderground v.1.15,2013-01-19 10:43:00,
2013-01-19 04:48:00,20.2,19.0,29.75,SW,232,0.0,0.0,95,0.00,,,0.00,Wunderground v.1.15,2013-01-19 10:48:00,
2013-01-19 04:54:00,20.1,18.9,29.75,SW,233,0.0,0.0,95,0.00,,,0.00,Wunderground v.1.15,2013-01-19 10:54:00,
2013-01-19 04:59:00,19.8,18.4,29.74,SW,232,0.0,0.0,94,0.00,,,0.00,Wunderground v.1.15,2013-01-19 10:59:00,
2013-01-19 05:04:00,19.7,18.3,29.74,SW,232,0.0,0.0,94,0.00,,,0.00,Wunderground v.1.15,2013-01-19 11:04:00,
2013-01-19 05:10:00,19.5,18.1,29.74,SW,233,0.0,0.0,94,0.00,,,0.00,Wunderground v.1.15,2013-01-19 11:10:00,
2013-01-19 06:48:00,14.9,13.5,29.73,SW,233,0.0,0.0,94,0.00,,,0.00,Wunderground v.1.15,2013-01-19 12:48:00,
2013-01-19 06:49:00,14.9,13.5,29.73,SW,233,0.0,0.0,94,0.00,,,0.00,Wunderground v.1.15,2013-01-19 12:49:00,
2013-01-19 06:50:00,14.9,13.5,29.73,SW,232,0.0,0.0,94,0.00,,,0.00,Wunderground v.1.15,2013-01-19 12:50:00,
2013-01-19 06:55:00,14.7,13.0,29.73,SW,233,0.0,0.0,93,0.00,,,0.00,Wunderground v.1.15,2013-01-19 12:55:00,
2013-01-19 07:00:00,14.5,12.8,29.72,SW,232,0.0,0.0,93,0.00,,,0.00,Wunderground v.1.15,2013-01-19 13:00:00,
2013-01-19 07:06:00,14.5,13.1,29.72,SW,233,0.0,0.0,94,0.00,,,0.00,Wunderground v.1.15,2013-01-19 13:06:00,
2013-01-19 07:11:00,14.6,13.2,29.73,SW,233,0.0,0.0,94,0.00,,,0.00,Wunderground v.1.15,2013-01-19 13:11:00,
2013-01-19 07:17:00,15.2,14.3,29.73,SW,233,0.0,1.0,96,0.00,,,0.00,Wunderground v.1.15,2013-01-19 13:17:00,
2013-01-19 07:22:00,17.5,16.8,29.73,WSW,241,0.0,0.0,97,0.00,,,0.00,Wunderground v.1.15,2013-01-19 13:22:00,
2013-01-19 07:28:00,19.9,19.2,29.73,SW,225,0.0,1.0,97,0.00,,,0.00,Wunderground v.1.15,2013-01-19 13:28:00,
2013-01-19 07:33:00,21.3,20.8,29.73,West,265,1.0,2.0,98,0.00,,,0.00,Wunderground v.1.15,2013-01-19 13:33:00,
2013-01-19 07:39:00,22.9,22.4,29.73,SSW,211,1.0,4.0,98,0.00,,,0.00,Wunderground v.1.15,2013-01-19 13:39:00,
2013-01-19 07:44:00,23.8,23.3,29.73,SW,220,1.0,1.0,98,0.00,,,0.00,Wunderground v.1.15,2013-01-19 13:44:00,
2013-01-19 07:49:00,24.6,24.1,29.73,SW,216,1.0,1.0,98,0.00,,,0.00,Wunderground v.1.15,2013-01-19 13:49:00,
2013-01-19 07:55:00,25.4,24.9,29.73,SSW,208,2.0,3.0,98,0.00,,,0.00,Wunderground v.1.15,2013-01-19 13:55:00,
2013-01-19 08:00:00,25.7,25.2,29.73,WSW,240,1.0,1.0,98,0.00,,,0.00,Wunderground v.1.15,2013-01-19 14:00:00,
2013-01-19 08:06:00,26.0,25.5,29.73,SW,214,2.0,3.0,98,0.00,,,0.00,Wunderground v.1.15,2013-01-19 14:06:00,
2013-01-19 08:12:00,26.2,25.7,29.74,South,180,2.0,2.0,98,0.00,,,0.00,Wunderground v.1.15,2013-01-19 14:12:00,
2013-01-19 08:18:00,26.4,25.9,29.74,SW,220,2.0,5.0,98,0.00,,,0.00,Wunderground v.1.15,2013-01-19 14:18:00,
2013-01-19 08:24:00,26.5,25.5,29.74,SSW,201,2.0,2.0,96,0.00,,,0.00,Wunderground v.1.15,2013-01-19 14:24:00,
2013-01-19 08:30:00,26.6,25.4,29.75,SW,220,2.0,2.0,95,0.00,,,0.00,Wunderground v.1.15,2013-01-19 14:30:00,
2013-01-19 08:35:00,26.8,25.6,29.75,WSW,243,2.0,4.0,95,0.00,,,0.00,Wunderground v.1.15,2013-01-19 14:35:00,
2013-01-19 08:41:00,27.2,25.7,29.76,SSW,207,2.0,2.0,94,0.00,,,0.00,Wunderground v.1.15,2013-01-19 14:41:00,
2013-01-19 08:47:00,27.6,25.8,29.76,SSW,195,3.0,7.0,93,0.00,,,0.00,Wunderground v.1.15,2013-01-19 14:47:00,
2013-01-19 08:52:00,28.0,26.2,29.76,WSW,256,4.0,4.0,93,0.00,,,0.00,Wunderground v.1.15,2013-01-19 14:52:00,
2013-01-19 08:57:00,28.1,26.1,29.76,SW,225,3.0,4.0,92,0.00,,,0.00,Wunderground v.1.15,2013-01-19 14:57:00,
2013-01-19 09:03:00,28.3,26.3,29.76,SW,233,2.0,3.0,92,0.00,,,0.00,Wunderground v.1.15,2013-01-19 15:03:00,
2013-01-19 09:09:00,28.5,26.5,29.76,WSW,246,3.0,8.0,92,0.00,,,0.00,Wunderground v.1.15,2013-01-19 15:09:00,
2013-01-19 09:15:00,28.7,26.4,29.77,SW,230,2.0,4.0,91,0.00,,,0.00,Wunderground v.1.15,2013-01-19 15:15:00,
2013-01-19 09:20:00,28.9,26.6,29.77,SW,227,2.0,4.0,91,0.00,,,0.00,Wunderground v.1.15,2013-01-19 15:20:00,
2013-01-19 09:25:00,29.1,26.8,29.77,West,265,2.0,6.0,91,0.00,,,0.00,Wunderground v.1.15,2013-01-19 15:25:00,
2013-01-19 09:31:00,29.4,27.1,29.77,WSW,240,3.0,3.0,91,0.00,,,0.00,Wunderground v.1.15,2013-01-19 15:31:00,
2013-01-19 09:37:00,29.6,27.0,29.78,SSW,212,2.0,4.0,90,0.00,,,0.00,Wunderground v.1.15,2013-01-19 15:37:00,
2013-01-19 09:43:00,29.7,27.1,29.77,SSW,198,2.0,2.0,90,0.00,,,0.00,Wunderground v.1.15,2013-01-19 15:43:00,
2013-01-19 09:49:00,29.8,27.2,29.77,WSW,252,1.0,2.0,90,0.00,,,0.00,Wunderground v.1.15,2013-01-19 15:49:00,
2013-01-19 09:55:00,30.1,27.5,29.77,SSW,212,1.0,4.0,90,0.00,,,0.00,Wunderground v.1.15,2013-01-19 15:55:00,
2013-01-19 10:00:00,30.2,27.3,29.77,SSW,213,2.0,2.0,89,0.00,,,0.00,Wunderground v.1.15,2013-01-19 16:00:00,
2013-01-19 10:07:00,30.2,27.3,29.77,SW,232,2.0,3.0,89,0.00,,,0.00,Wunderground v.1.15,2013-01-19 16:07:00,
2013-01-19 10:12:00,30.2,27.3,29.77,SW,220,1.0,2.0,89,0.00,,,0.00,Wunderground v.1.15,2013-01-19 16:12:00,
2013-01-19 10:18:00,30.3,27.7,29.77,WSW,256,2.0,5.0,90,0.00,,,0.00,Wunderground v.1.15,2013-01-19 16:18:00,
2013-01-19 10:24:00,30.7,27.8,29.77,South,185,3.0,3.0,89,0.00,,,0.00,Wunderground v.1.15,2013-01-19 16:24:00,
2013-01-19 10:29:00,30.9,28.0,29.77,SW,220,2.0,6.0,89,0.00,,,0.00,Wunderground v.1.15,2013-01-19 16:29:00,
2013-01-19 10:34:00,30.9,27.8,29.77,SSW,206,2.0,3.0,88,0.00,,,0.00,Wunderground v.1.15,2013-01-19 16:34:00,
2013-01-19 10:40:00,31.0,27.9,29.78,SW,216,2.0,4.0,88,0.00,,,0.00,Wunderground v.1.15,2013-01-19 16:40:00,
2013-01-19 10:46:00,31.1,28.0,29.78,SW,226,3.0,9.0,88,0.00,,,0.00,Wunderground v.1.15,2013-01-19 16:46:00,
2013-01-19 10:53:00,31.1,28.0,29.78,West,265,4.0,8.0,88,0.00,,,0.00,Wunderground v.1.15,2013-01-19 16:53:00,
2013-01-19 10:58:00,31.3,27.6,29.78,West,276,4.0,8.0,86,0.00,,,0.00,Wunderground v.1.15,2013-01-19 16:58:00,
2013-01-19 11:03:00,31.3,27.0,29.78,WNW,287,5.0,10.0,84,0.00,,,0.00,Wunderground v.1.15,2013-01-19 17:03:00,
2013-01-19 11:09:00,31.2,26.6,29.78,SW,229,5.0,10.0,83,0.00,,,0.00,Wunderground v.1.15,2013-01-19 17:09:00,
2013-01-19 11:14:00,31.2,26.9,29.78,SW,228,4.0,6.0,84,0.00,,,0.00,Wunderground v.1.15,2013-01-19 17:14:00,
2013-01-19 11:20:00,31.1,26.5,29.77,WSW,258,4.0,4.0,83,0.00,,,0.00,Wunderground v.1.15,2013-01-19 17:20:00,
2013-01-19 11:25:00,30.9,26.3,29.77,NW,324,5.0,8.0,83,0.00,,,0.00,Wunderground v.1.15,2013-01-19 17:25:00,
2013-01-19 11:30:00,30.8,26.2,29.77,West,260,6.0,6.0,83,0.00,,,0.00,Wunderground v.1.15,2013-01-19 17:30:00,
2013-01-19 11:35:00,30.8,26.2,29.77,WNW,289,4.0,9.0,83,0.00,,,0.00,Wunderground v.1.15,2013-01-19 17:35:00,
2013-01-19 11:40:00,30.6,25.8,29.77,WNW,282,4.0,4.0,82,0.00,,,0.00,Wunderground v.1.15,2013-01-19 17:40:00,
2013-01-19 11:45:00,30.5,25.1,29.77,WSW,244,4.0,9.0,80,0.00,,,0.00,Wunderground v.1.15,2013-01-19 17:45:00,
2013-01-19 11:52:00,29.6,23.0,29.78,WSW,246,5.0,9.0,76,0.00,,,0.00,Wunderground v.1.15,2013-01-19 17:52:00,
2013-01-19 11:58:00,29.0,22.1,29.77,SSW,202,6.0,10.0,75,0.00,,,0.00,Wunderground v.1.15,2013-01-19 17:58:00,
2013-01-19 12:04:00,28.0,20.5,29.79,NNE,14,6.0,6.0,73,0.00,,,0.00,Wunderground v.1.15,2013-01-19 18:04:00,
2013-01-19 12:10:00,27.1,19.6,29.79,SW,235,5.0,5.0,73,0.00,,,0.00,Wunderground v.1.15,2013-01-19 18:10:00,
2013-01-19 12:15:00,26.9,19.1,29.78,West,269,4.0,10.0,72,0.00,,,0.00,Wunderground v.1.15,2013-01-19 18:15:00,
2013-01-19 12:21:00,26.9,19.1,29.78,SW,234,5.0,5.0,72,0.00,,,0.00,Wunderground v.1.15,2013-01-19 18:21:00,
2013-01-19 12:29:00,26.6,18.1,29.79,WNW,288,4.0,6.0,70,0.00,,,0.00,Wunderground v.1.15,2013-01-19 18:29:00,
2013-01-19 12:34:00,25.9,16.4,29.80,West,280,5.0,7.0,67,0.00,,,0.00,Wunderground v.1.15,2013-01-19 18:34:00,
2013-01-19 12:40:00,25.1,15.3,29.80,WSW,240,5.0,5.0,66,0.00,,,0.00,Wunderground v.1.15,2013-01-19 18:40:00,
2013-01-19 12:45:00,24.1,14.4,29.81,WSW,249,5.0,10.0,66,0.00,,,0.00,Wunderground v.1.15,2013-01-19 18:45:00,
2013-01-19 12:50:00,22.9,12.5,29.81,West,269,7.0,7.0,64,0.00,,,0.00,Wunderground v.1.15,2013-01-19 18:50:00,
2013-01-19 12:56:00,22.0,11.7,29.82,WSW,241,6.0,7.0,64,0.00,,,0.00,Wunderground v.1.15,2013-01-19 18:56:00,
2013-01-19 13:02:00,20.3,10.1,29.83,West,261,7.0,11.0,64,0.00,,,0.00,Wunderground v.1.15,2013-01-19 19:02:00,
2013-01-19 13:08:00,19.4,9.9,29.84,West,274,8.0,11.0,66,0.00,,,0.00,Wunderground v.1.15,2013-01-19 19:08:00,
2013-01-19 13:17:00,18.3,9.2,29.84,West,269,7.0,8.0,67,0.00,,,0.00,Wunderground v.1.15,2013-01-19 19:17:00,
2013-01-19 13:23:00,17.9,8.8,29.86,WNW,290,6.0,9.0,67,0.00,,,0.00,Wunderground v.1.15,2013-01-19 19:23:00,
2013-01-19 13:32:00,16.9,7.8,29.87,SW,233,6.0,16.0,67,0.00,,,0.00,Wunderground v.1.15,2013-01-19 19:32:00,
2013-01-19 13:38:00,16.3,7.6,29.87,WSW,255,6.0,16.0,68,0.00,,,0.00,Wunderground v.1.15,2013-01-19 19:38:00,
2013-01-19 13:45:00,16.3,7.6,29.88,West,274,5.0,6.0,68,0.00,,,0.00,Wunderground v.1.15,2013-01-19 19:45:00,
2013-01-19 13:50:00,16.4,6.7,29.88,WSW,255,5.0,10.0,65,0.00,,,0.00,Wunderground v.1.15,2013-01-19 19:50:00,
2013-01-19 13:56:00,15.5,5.8,29.89,West,260,6.0,15.0,65,0.00,,,0.00,Wunderground v.1.15,2013-01-19 19:56:00,
2013-01-19 14:02:00,14.8,4.8,29.90,WSW,237,6.0,8.0,64,0.00,,,0.00,Wunderground v.1.15,2013-01-19 20:02:00,
2013-01-19 14:07:00,14.4,4.4,29.91,WSW,249,4.0,8.0,64,0.00,,,0.00,Wunderground v.1.15,2013-01-19 20:07:00,
2013-01-19 14:14:00,13.5,4.6,29.91,SSW,206,6.0,9.0,67,0.00,,,0.00,Wunderground v.1.15,2013-01-19 20:14:00,
2013-01-19 14:19:00,13.0,4.1,29.91,WNW,282,6.0,9.0,67,0.00,,,0.00,Wunderground v.1.15,2013-01-19 20:19:00,
2013-01-19 14:24:00,12.6,3.7,29.91,WSW,252,6.0,10.0,67,0.00,,,0.00,Wunderground v.1.15,2013-01-19 20:24:00,
2013-01-19 14:30:00,11.6,0.7,29.92,SSW,212,9.0,9.0,61,0.00,,,0.00,Wunderground v.1.15,2013-01-19 20:30:00,
2013-01-19 14:35:00,11.0,0.5,29.93,WNW,285,9.0,13.0,62,0.00,,,0.00,Wunderground v.1.15,2013-01-19 20:35:00,
2013-01-19 14:41:00,10.6,1.5,29.92,SW,225,7.0,9.0,66,0.00,,,0.00,Wunderground v.1.15,2013-01-19 20:41:00,
2013-01-19 14:46:00,10.4,1.9,29.92,South,173,6.0,13.0,68,0.00,,,0.00,Wunderground v.1.15,2013-01-19 20:46:00,
2013-01-19 14:52:00,10.1,0.7,29.93,SW,218,6.0,10.0,65,0.00,,,0.00,Wunderground v.1.15,2013-01-19 20:52:00,
2013-01-19 14:57:00,9.5,-0.6,29.94,West,266,8.0,14.0,63,0.00,,,0.00,Wunderground v.1.15,2013-01-19 20:57:00,
2013-01-19 15:03:00,8.9,-0.5,29.94,WSW,249,8.0,8.0,65,0.00,,,0.00,Wunderground v.1.15,2013-01-19 21:03:00,
2013-01-19 15:08:00,8.5,-0.5,29.95,SW,218,7.0,8.0,66,0.00,,,0.00,Wunderground v.1.15,2013-01-19 21:08:00,
2013-01-19 15:14:00,8.2,-1.2,29.95,SW,219,5.0,7.0,65,0.00,,,0.00,Wunderground v.1.15,2013-01-19 21:14:00,
2013-01-19 15:19:00,8.0,-1.3,29.96,SW,236,4.0,7.0,65,0.00,,,0.00,Wunderground v.1.15,2013-01-19 21:19:00,
2013-01-19 15:25:00,7.6,-1.7,29.97,West,278,6.0,15.0,65,0.00,,,0.00,Wunderground v.1.15,2013-01-19 21:25:00,
2013-01-19 15:30:00,7.1,-2.2,29.97,West,272,7.0,7.0,65,0.00,,,0.00,Wunderground v.1.15,2013-01-19 21:30:00,
2013-01-19 15:35:00,6.8,-2.5,29.98,SSW,213,7.0,9.0,65,0.00,,,0.00,Wunderground v.1.15,2013-01-19 21:35:00,
2013-01-19 15:42:00,6.7,-2.3,29.99,West,259,7.0,8.0,66,0.00,,,0.00,Wunderground v.1.15,2013-01-19 21:42:00,
2013-01-19 15:48:00,6.7,-1.6,29.99,West,268,5.0,11.0,68,0.00,,,0.00,Wunderground v.1.15,2013-01-19 21:48:00,
2013-01-19 15:53:00,6.6,-1.7,30.00,WNW,298,5.0,7.0,68,0.00,,,0.00,Wunderground v.1.15,2013-01-19 21:53:00,
2013-01-19 15:59:00,6.1,-2.8,30.01,SW,236,5.0,17.0,66,0.00,,,0.00,Wunderground v.1.15,2013-01-19 21:59:00,
2013-01-19 16:05:00,5.5,-4.1,30.02,West,271,6.0,6.0,64,0.00,,,0.00,Wunderground v.1.15,2013-01-19 22:05:00,
2013-01-19 16:11:00,5.0,-4.5,30.02,WSW,238,7.0,8.0,64,0.00,,,0.00,Wunderground v.1.15,2013-01-19 22:11:00,
2013-01-19 16:17:00,4.6,-4.9,30.03,WNW,286,7.0,8.0,64,0.00,,,0.00,Wunderground v.1.15,2013-01-19 22:17:00,
2013-01-19 16:23:00,4.1,-5.7,30.03,West,270,7.0,7.0,63,0.00,,,0.00,Wunderground v.1.15,2013-01-19 22:23:00,
2013-01-19 16:28:00,3.8,-6.0,30.04,SSW,213,7.0,13.0,63,0.00,,,0.00,Wunderground v.1.15,2013-01-19 22:28:00,
2013-01-19 16:34:00,3.5,-5.6,30.04,WNW,303,7.0,9.0,65,0.00,,,0.00,Wunderground v.1.15,2013-01-19 22:34:00,
2013-01-19 16:40:00,3.2,-5.0,30.05,NW,315,6.0,6.0,68,0.00,,,0.00,Wunderground v.1.15,2013-01-19 22:40:00,
2013-01-19 16:45:00,3.0,-5.2,30.06,SW,224,6.0,13.0,68,0.00,,,0.00,Wunderground v.1.15,2013-01-19 22:45:00,
2013-01-19 16:50:00,2.9,-5.3,30.06,WSW,241,6.0,6.0,68,0.00,,,0.00,Wunderground v.1.15,2013-01-19 22:50:00,
2013-01-19 16:56:00,2.7,-5.2,30.06,SSW,205,5.0,12.0,69,0.00,,,0.00,Wunderground v.1.15,2013-01-19 22:56:00,
2013-01-19 17:03:00,2.3,-5.6,30.07,NW,319,5.0,9.0,69,0.00,,,0.00,Wunderground v.1.15,2013-01-19 23:03:00,
2013-01-19 17:10:00,1.9,-5.3,30.07,WSW,245,5.0,7.0,71,0.00,,,0.00,Wunderground v.1.15,2013-01-19 23:10:00,
2013-01-19 17:17:00,1.8,-5.2,30.08,West,272,6.0,9.0,72,0.00,,,0.00,Wunderground v.1.15,2013-01-19 23:17:00,
2013-01-19 17:22:00,1.7,-5.0,30.09,WSW,258,5.0,6.0,73,0.00,,,0.00,Wunderground v.1.15,2013-01-19 23:22:00,
2013-01-19 17:28:00,1.7,-5.2,30.09,West,268,5.0,10.0,72,0.00,,,0.00,Wunderground v.1.15,2013-01-19 23:28:00,
2013-01-19 17:33:00,1.7,-5.0,30.10,West,265,6.0,8.0,73,0.00,,,0.00,Wunderground v.1.15,2013-01-19 23:33:00,
2013-01-19 17:39:00,1.6,-5.1,30.11,West,273,5.0,17.0,73,0.00,,,0.00,Wunderground v.1.15,2013-01-19 23:39:00,
2013-01-19 17:45:00,1.7,-5.2,30.11,NW,310,6.0,20.0,72,0.00,,,0.00,Wunderground v.1.15,2013-01-19 23:45:00,
2013-01-19 17:51:00,1.6,-5.3,30.12,West,263,7.0,8.0,72,0.00,,,0.00,Wunderground v.1.15,2013-01-19 23:51:00,
2013-01-19 18:00:00,1.5,-5.4,30.13,WSW,254,5.0,5.0,72,0.00,,,0.00,Wunderground v.1.15,2013-01-20 00:00:00,
2013-01-19 18:07:00,1.5,-5.4,30.13,West,268,5.0,10.0,72,0.00,,,0.00,Wunderground v.1.15,2013-01-20 00:07:00,
2013-01-19 18:12:00,1.5,-5.4,30.14,West,272,6.0,11.0,72,0.00,,,0.00,Wunderground v.1.15,2013-01-20 00:12:00,
2013-01-19 18:18:00,1.4,-5.5,30.14,WSW,241,6.0,11.0,72,0.00,,,0.00,Wunderground v.1.15,2013-01-20 00:18:00,
2013-01-19 18:24:00,1.3,-5.3,30.15,WSW,238,5.0,15.0,73,0.00,,,0.00,Wunderground v.1.15,2013-01-20 00:24:00,
2013-01-19 18:29:00,1.3,-5.3,30.15,West,263,5.0,15.0,73,0.00,,,0.00,Wunderground v.1.15,2013-01-20 00:29:00,
2013-01-19 18:34:00,1.3,-5.3,30.16,West,260,6.0,6.0,73,0.00,,,0.00,Wunderground v.1.15,2013-01-20 00:34:00,
2013-01-19 18:39:00,1.2,-5.4,30.16,WSW,237,5.0,8.0,73,0.00,,,0.00,Wunderground v.1.15,2013-01-20 00:39:00,
2013-01-19 18:44:00,1.1,-5.3,30.16,West,280,4.0,5.0,74,0.00,,,0.00,Wunderground v.1.15,2013-01-20 00:44:00,
2013-01-19 18:50:00,1.0,-5.4,30.17,West,268,3.0,3.0,74,0.00,,,0.00,Wunderground v.1.15,2013-01-20 00:50:00,
2013-01-19 18:57:00,1.0,-5.4,30.18,SW,234,4.0,8.0,74,0.00,,,0.00,Wunderground v.1.15,2013-01-20 00:57:00,
2013-01-19 19:03:00,1.0,-5.4,30.18,SW,220,4.0,5.0,74,0.00,,,0.00,Wunderground v.1.15,2013-01-20 01:03:00,
2013-01-19 19:09:00,0.9,-5.5,30.19,WSW,239,4.0,7.0,74,0.00,,,0.00,Wunderground v.1.15,2013-01-20 01:09:00,
2013-01-19 19:15:00,0.9,-5.5,30.19,SSW,198,4.0,6.0,74,0.00,,,0.00,Wunderground v.1.15,2013-01-20 01:15:00,
2013-01-19 19:22:00,0.9,-5.5,30.20,WSW,237,4.0,4.0,74,0.00,,,0.00,Wunderground v.1.15,2013-01-20 01:22:00,
2013-01-19 19:28:00,0.9,-5.5,30.21,NW,304,4.0,6.0,74,0.00,,,0.00,Wunderground v.1.15,2013-01-20 01:28:00,
2013-01-19 19:34:00,0.9,-5.5,30.21,SW,227,4.0,5.0,74,0.00,,,0.00,Wunderground v.1.15,2013-01-20 01:34:00,
2013-01-19 19:39:00,0.8,-5.3,30.21,West,260,3.0,6.0,75,0.00,,,0.00,Wunderground v.1.15,2013-01-20 01:39:00,
2013-01-19 19:45:00,0.6,-5.5,30.22,West,264,2.0,5.0,75,0.00,,,0.00,Wunderground v.1.15,2013-01-20 01:45:00,
2013-01-19 19:51:00,0.6,-5.5,30.22,West,262,2.0,2.0,75,0.00,,,0.00,Wunderground v.1.15,2013-01-20 01:51:00,
2013-01-19 19:57:00,0.6,-5.5,30.23,WSW,239,3.0,6.0,75,0.00,,,0.00,Wunderground v.1.15,2013-01-20 01:57:00,
2013-01-19 20:04:00,0.4,-5.7,30.23,West,275,3.0,7.0,75,0.00,,,0.00,Wunderground v.1.15,2013-01-20 02:04:00,
2013-01-19 20:10:00,0.3,-5.5,30.23,West,269,3.0,3.0,76,0.00,,,0.00,Wunderground v.1.15,2013-01-20 02:10:00,
2013-01-19 20:15:00,0.3,-5.8,30.24,SW,229,3.0,7.0,75,0.00,,,0.00,Wunderground v.1.15,2013-01-20 02:15:00,
2013-01-19 20:21:00,0.2,-5.6,30.24,West,275,3.0,6.0,76,0.00,,,0.00,Wunderground v.1.15,2013-01-20 02:21:00,
2013-01-19 20:27:00,0.1,-5.7,30.24,WNW,289,3.0,6.0,76,0.00,,,0.00,Wunderground v.1.15,2013-01-20 02:27:00,
2013-01-19 20:34:00,-0.1,-5.9,30.25,SW,221,3.0,3.0,76,0.00,,,0.00,Wunderground v.1.15,2013-01-20 02:34:00,
2013-01-19 20:39:00,-0.2,-6.0,30.25,WSW,245,2.0,4.0,76,0.00,,,0.00,Wunderground v.1.15,2013-01-20 02:39:00,
2013-01-19 20:45:00,-0.3,-5.8,30.25,West,270,2.0,4.0,77,0.00,,,0.00,Wunderground v.1.15,2013-01-20 02:45:00,
2013-01-19 20:52:00,-0.3,-5.8,30.25,WSW,245,3.0,3.0,77,0.00,,,0.00,Wunderground v.1.15,2013-01-20 02:52:00,
2013-01-19 20:59:00,-0.4,-5.9,30.26,SW,233,3.0,9.0,77,0.00,,,0.00,Wunderground v.1.15,2013-01-20 02:59:00,
2013-01-19 21:05:00,-0.4,-5.6,30.27,WNW,287,3.0,5.0,78,0.00,,,0.00,Wunderground v.1.15,2013-01-20 03:05:00,
2013-01-19 21:10:00,-0.5,-5.7,30.27,WNW,301,3.0,7.0,78,0.00,,,0.00,Wunderground v.1.15,2013-01-20 03:10:00,
2013-01-19 21:17:00,-0.7,-5.9,30.27,WSW,249,3.0,7.0,78,0.00,,,0.00,Wunderground v.1.15,2013-01-20 03:17:00,
2013-01-19 21:23:00,-0.7,-5.7,30.27,West,261,3.0,6.0,79,0.00,,,0.00,Wunderground v.1.15,2013-01-20 03:23:00,
2013-01-19 21:29:00,-0.8,-5.7,30.28,West,275,4.0,7.0,79,0.00,,,0.00,Wunderground v.1.15,2013-01-20 03:29:00,
2013-01-19 21:34:00,-0.9,-5.8,30.28,West,264,3.0,4.0,79,0.00,,,0.00,Wunderground v.1.15,2013-01-20 03:34:00,
2013-01-19 21:39:00,-1.1,-6.0,30.28,WNW,289,2.0,4.0,79,0.00,,,0.00,Wunderground v.1.15,2013-01-20 03:39:00,
2013-01-19 21:44:00,-1.2,-6.1,30.29,West,278,2.0,4.0,79,0.00,,,0.00,Wunderground v.1.15,2013-01-20 03:44:00,
2013-01-19 21:49:00,-1.2,-6.1,30.29,West,269,2.0,4.0,79,0.00,,,0.00,Wunderground v.1.15,2013-01-20 03:49:00,
2013-01-19 21:55:00,-1.2,-6.1,30.29,WSW,239,2.0,4.0,79,0.00,,,0.00,Wunderground v.1.15,2013-01-20 03:55:00,
2013-01-19 22:00:00,-1.4,-6.3,30.29,West,269,2.0,2.0,79,0.00,,,0.00,Wunderground v.1.15,2013-01-20 04:00:00,
2013-01-19 22:05:00,-1.5,-6.4,30.29,West,272,3.0,6.0,79,0.00,,,0.00,Wunderground v.1.15,2013-01-20 04:05:00,
2013-01-19 22:11:00,-1.6,-6.8,30.30,West,275,3.0,4.0,78,0.00,,,0.00,Wunderground v.1.15,2013-01-20 04:11:00,
2013-01-19 22:17:00,-1.7,-6.9,30.30,NW,308,3.0,5.0,78,0.00,,,0.00,Wunderground v.1.15,2013-01-20 04:17:00,
2013-01-19 22:23:00,-1.8,-7.0,30.30,WNW,296,3.0,3.0,78,0.00,,,0.00,Wunderground v.1.15,2013-01-20 04:23:00,
2013-01-19 22:28:00,-2.0,-7.2,30.30,West,275,2.0,3.0,78,0.00,,,0.00,Wunderground v.1.15,2013-01-20 04:28:00,
2013-01-19 22:34:00,-2.1,-7.3,30.31,West,269,2.0,2.0,78,0.00,,,0.00,Wunderground v.1.15,2013-01-20 04:34:00,
2013-01-19 22:39:00,-2.3,-7.5,30.31,West,279,1.0,3.0,78,0.00,,,0.00,Wunderground v.1.15,2013-01-20 04:39:00,
2013-01-19 22:45:00,-2.4,-7.6,30.31,WNW,293,2.0,5.0,78,0.00,,,0.00,Wunderground v.1.15,2013-01-20 04:45:00,
2013-01-19 22:52:00,-2.5,-7.7,30.31,WSW,239,2.0,2.0,78,0.00,,,0.00,Wunderground v.1.15,2013-01-20 04:52:00,
2013-01-19 23:03:00,-2.8,-8.0,30.31,WNW,284,2.0,2.0,78,0.00,,,0.00,Wunderground v.1.15,2013-01-20 05:03:00,
2013-01-19 23:06:00,-2.8,-8.0,30.31,West,273,2.0,2.0,78,0.00,,,0.00,Wunderground v.1.15,2013-01-20 05:06:00,
2013-01-19 23:07:00,-2.9,-8.1,30.31,West,272,2.0,2.0,78,0.00,,,0.00,Wunderground v.1.15,2013-01-20 05:07:00,
2013-01-19 23:12:00,-3.0,-8.2,30.31,WSW,244,2.0,2.0,78,0.00,,,0.00,Wunderground v.1.15,2013-01-20 05:12:00,
2013-01-19 23:17:00,-3.2,-8.1,30.31,West,260,1.0,4.0,79,0.00,,,0.00,Wunderground v.1.15,2013-01-20 05:17:00,
2013-01-19 23:18:00,-3.2,-8.1,30.31,West,269,1.0,4.0,79,0.00,,,0.00,Wunderground v.1.15,2013-01-20 05:18:00,
2013-01-19 23:24:00,-3.4,-8.3,30.32,West,263,1.0,2.0,79,0.00,,,0.00,Wunderground v.1.15,2013-01-20 05:24:00,
2013-01-19 23:29:00,-3.6,-8.5,30.32,West,275,1.0,2.0,79,0.00,,,0.00,Wunderground v.1.15,2013-01-20 05:29:00,
2013-01-19 23:35:00,-3.8,-8.4,30.32,WSW,246,1.0,1.0,80,0.00,,,0.00,Wunderground v.1.15,2013-01-20 05:35:00,
2013-01-19 23:40:00,-3.9,-8.5,30.32,WSW,237,1.0,1.0,80,0.00,,,0.00,Wunderground v.1.15,2013-01-20 05:40:00,
2013-01-19 23:45:00,-4.0,-8.6,30.32,West,272,1.0,2.0,80,0.00,,,0.00,Wunderground v.1.15,2013-01-20 05:45:00,
2013-01-19 23:51:00,-4.2,-8.8,30.33,West,263,1.0,1.0,80,0.00,,,0.00,Wunderground v.1.15,2013-01-20 05:51:00,
2013-01-19 23:57:00,-4.4,-9.0,30.34,West,263,1.0,4.0,80,0.00,,,0.00,Wunderground v.1.15,2013-01-20 05:57:00,